Time;durP1;ratioP1;P1;durP2;ratioP2;P2;SDS_P1;SDS_P2;PMS_P1;PMS_P2;Temp;Humidity;BMP_temperature;BMP_pressure;BME280_temperature;BME280_humidity;BME280_pressure;Samples;Min_cycle;Max_cycle;Signal;HPM_P1;HPM_P2
2021/09/11 00:00:52;;;;;;;90.20;60.65;;;;;;;16.83;100.00;101008.34;4814055;29;20026;-83
2021/09/11 00:03:18;;;;;;;92.55;60.95;;;;;;;16.86;100.00;101016.03;4814020;29;20074;-82
2021/09/11 00:08:19;;;;;;;81.43;55.92;;;;;;;16.87;100.00;101016.88;5389021;24;20071;-82
2021/09/11 00:15:56;;;;;;;84.82;56.22;;;;;;;17.02;100.00;101049.00;5724792;24;20013;-81
2021/09/11 00:18:26;;;;;;;78.40;54.13;;;;;;;16.77;100.00;101006.56;4813374;29;20017;-82
2021/09/11 00:20:51;;;;;;;79.35;55.75;;;;;;;16.44;100.00;100948.16;4811314;29;20042;-83
2021/09/11 00:23:17;;;;;;;66.55;48.78;;;;;;;17.04;100.00;101046.88;4827312;29;20024;-82
2021/09/11 00:28:18;;;;;;;84.55;54.00;;;;;;;16.39;100.00;100956.19;5066169;24;20062;-82
2021/09/11 00:30:44;;;;;;;68.53;50.22;;;;;;;16.54;100.00;100984.78;4794994;29;20095;-82
2021/09/11 00:33:13;;;;;;;64.95;49.75;;;;;;;17.00;100.00;101056.59;4800212;29;20074;-81
2021/09/11 00:35:38;;;;;;;72.50;55.08;;;;;;;16.96;100.00;101055.41;4828217;29;20086;-82
2021/09/11 00:38:04;;;;;;;71.75;52.95;;;;;;;16.97;100.00;101048.91;4824960;29;20073;-82
2021/09/11 00:48:16;;;;;;;73.20;52.95;;;;;;;16.17;100.00;100939.63;5086118;24;20100;-83
2021/09/11 00:53:20;;;;;;;63.03;47.15;;;;;;;16.10;100.00;100921.78;5067104;24;20265;-83
2021/09/11 00:55:47;;;;;;;60.05;46.25;;;;;;;16.18;100.00;100935.84;4797146;29;20085;-83
2021/09/11 00:58:13;;;;;;;64.00;47.40;;;;;;;16.05;100.00;100921.66;5710909;24;20020;-82
2021/09/11 01:00:38;;;;;;;49.60;40.17;;;;;;;16.13;100.00;100929.47;4849253;29;20022;-82
2021/09/11 01:03:04;;;;;;;60.30;44.55;;;;;;;16.31;100.00;100964.66;4841348;29;20049;-83
2021/09/11 01:05:30;;;;;;;56.03;41.80;;;;;;;16.67;100.00;101014.44;4869225;29;20050;-83
2021/09/11 01:07:55;;;;;;;51.95;41.00;;;;;;;16.38;100.00;100962.66;4853329;29;20049;-82
2021/09/11 01:12:59;;;;;;;60.33;47.03;;;;;;;16.14;100.00;100925.69;5464781;24;20083;-81
2021/09/11 01:15:37;;;;;;;53.15;42.78;;;;;;;16.04;100.00;100911.84;4816743;29;20062;-82
2021/09/11 01:18:04;;;;;;;53.60;42.05;;;;;;;16.51;100.00;100979.81;4812825;29;20039;-82
2021/09/11 01:20:31;;;;;;;53.33;43.10;;;;;;;16.08;100.00;100904.91;4799219;29;20100;-82
2021/09/11 01:22:56;;;;;;;50.90;42.28;;;;;;;16.89;100.00;101026.44;4830998;29;20054;-83
2021/09/11 01:25:23;;;;;;;61.95;46.63;;;;;;;16.05;100.00;100902.66;4816503;29;20060;-83
2021/09/11 01:27:50;;;;;;;60.38;46.35;;;;;;;16.61;100.00;100988.22;4822800;29;20020;-82
2021/09/11 01:30:18;;;;;;;51.78;42.10;;;;;;;16.19;100.00;100904.94;4832695;29;20022;-81
2021/09/11 01:32:44;;;;;;;56.13;44.47;;;;;;;16.91;100.00;101018.88;4816775;29;20019;-82
2021/09/11 01:50:41;;;;;;;80.97;53.53;;;;;;;16.25;100.00;100910.47;5824874;24;20047;-81
2021/09/11 01:53:07;;;;;;;80.35;54.38;;;;;;;16.40;100.00;100933.41;4801780;29;20098;-83
2021/09/11 01:55:33;;;;;;;72.28;53.45;;;;;;;16.92;100.00;101014.28;4805856;29;20068;-83
2021/09/11 01:57:58;;;;;;;77.60;53.90;;;;;;;16.55;100.00;100953.84;4804482;29;20031;-82
2021/09/11 02:00:24;;;;;;;78.20;53.90;;;;;;;16.31;100.00;100904.94;4831710;29;20011;-83
2021/09/11 02:02:50;;;;;;;73.82;53.05;;;;;;;16.72;100.00;100962.97;4814916;29;20095;-84
2021/09/11 02:05:33;;;;;;;60.60;46.97;;;;;;;16.58;100.00;100964.22;4814888;29;20015;-83
2021/09/11 02:07:59;;;;;;;68.22;49.97;;;;;;;16.66;100.00;100972.06;4812403;29;20016;-83
2021/09/11 02:10:26;;;;;;;65.40;50.35;;;;;;;16.93;100.00;101015.94;4828316;29;20046;-80
2021/09/11 02:15:27;;;;;;;59.15;45.88;;;;;;;16.24;100.00;100908.81;5568778;24;20053;-83
2021/09/11 02:17:53;;;;;;;61.20;47.17;;;;;;;16.91;100.00;101032.44;4852349;29;20077;-83
2021/09/11 02:20:18;;;;;;;59.45;45.97;;;;;;;16.66;100.00;100970.16;4867218;29;20026;-82
2021/09/11 02:22:45;;;;;;;68.75;50.78;;;;;;;16.70;100.00;100975.94;4866580;29;20030;-82
2021/09/11 02:25:11;;;;;;;59.97;46.95;;;;;;;16.45;100.00;100941.66;4851695;29;20064;-83
2021/09/11 02:27:40;;;;;;;66.47;50.10;;;;;;;16.48;100.00;100932.22;4835951;29;20038;-83
2021/09/11 02:30:06;;;;;;;57.20;44.97;;;;;;;16.10;100.00;100875.63;4868032;29;20033;-82
2021/09/11 02:32:32;;;;;;;55.45;44.80;;;;;;;16.23;100.00;100902.56;4850925;29;20029;-81
2021/09/11 02:34:58;;;;;;;53.72;44.15;;;;;;;16.26;100.00;100904.81;4851148;29;20038;-83
2021/09/11 02:37:23;;;;;;;56.45;44.55;;;;;;;16.39;100.00;100931.75;4867468;29;20037;-83
2021/09/11 02:39:49;;;;;;;53.10;42.08;;;;;;;16.35;100.00;100922.41;4848298;29;20017;-83
2021/09/11 02:42:15;;;;;;;54.83;43.13;;;;;;;16.75;100.00;100994.28;4860681;29;20010;-83
2021/09/11 02:44:44;;;;;;;52.85;44.10;;;;;;;16.74;100.00;101000.75;4867041;29;20054;-82
2021/09/11 02:47:11;;;;;;;50.47;41.85;;;;;;;15.91;100.00;100864.03;4864978;29;20018;-83
2021/09/11 02:49:36;;;;;;;53.70;42.78;;;;;;;16.67;100.00;100990.00;4836576;29;20032;-82
2021/09/11 02:52:02;;;;;;;51.35;43.25;;;;;;;16.09;100.00;100907.41;4851374;29;20029;-82
2021/09/11 02:54:28;;;;;;;52.38;42.95;;;;;;;15.84;100.00;100871.47;4842198;29;20049;-82
2021/09/11 02:56:54;;;;;;;46.85;40.28;;;;;;;15.87;100.00;100876.41;4833353;29;20046;-83
2021/09/11 02:59:20;;;;;;;50.10;41.35;;;;;;;15.85;100.00;100862.25;4834597;29;20082;-82
2021/09/11 03:01:46;;;;;;;51.45;40.75;;;;;;;16.44;100.00;100960.91;4848915;29;20060;-82
2021/09/11 03:04:12;;;;;;;53.10;42.13;;;;;;;16.37;100.00;100952.06;4850649;29;20010;-83
2021/09/11 03:06:37;;;;;;;49.78;39.78;;;;;;;16.18;100.00;100927.69;4865723;29;20014;-82
2021/09/11 03:09:03;;;;;;;49.92;42.72;;;;;;;16.62;100.00;101006.16;4866131;29;20063;-83
2021/09/11 03:11:32;;;;;;;56.35;42.65;;;;;;;16.61;100.00;101001.81;4850155;29;20046;-82
2021/09/11 03:14:01;;;;;;;49.97;41.50;;;;;;;15.87;100.00;100888.09;4866334;29;20070;-82
2021/09/11 03:16:27;;;;;;;53.80;43.47;;;;;;;16.10;100.00;100919.06;4850237;29;20041;-82
2021/09/11 03:18:54;;;;;;;58.40;44.70;;;;;;;16.60;100.00;100986.56;4848924;29;20021;-82
2021/09/11 03:21:20;;;;;;;62.38;47.67;;;;;;;16.08;100.00;100919.28;4851041;29;20059;-83
2021/09/11 03:23:46;;;;;;;59.47;47.50;;;;;;;16.61;100.00;100991.75;4832275;29;20053;-82
2021/09/11 03:26:12;;;;;;;61.60;44.97;;;;;;;16.60;100.00;100990.09;4846829;29;20034;-82
2021/09/11 03:28:38;;;;;;;62.75;47.25;;;;;;;16.62;100.00;100982.56;4851018;29;20034;-82
2021/09/11 03:31:04;;;;;;;59.67;47.28;;;;;;;15.88;100.00;100881.59;4849756;29;20077;-81
2021/09/11 03:33:30;;;;;;;66.18;48.58;;;;;;;16.16;100.00;100913.53;4864343;29;20123;-81
2021/09/11 03:35:56;;;;;;;60.92;47.40;;;;;;;16.08;100.00;100899.47;4849565;29;20030;-82
2021/09/11 03:38:21;;;;;;;61.33;47.33;;;;;;;15.76;100.00;100855.50;4849187;29;20034;-81
2021/09/11 03:40:47;;;;;;;60.85;46.75;;;;;;;16.11;100.00;100915.28;4849199;29;20067;-82
2021/09/11 03:43:13;;;;;;;63.75;48.17;;;;;;;15.88;100.00;100881.59;4849325;29;20053;-82
2021/09/11 03:45:38;;;;;;;65.55;47.10;;;;;;;15.85;100.00;100867.69;4860098;29;20038;-82
2021/09/11 03:48:04;;;;;;;61.67;47.53;;;;;;;16.52;100.00;100986.91;4849466;29;20360;-82
2021/09/11 03:50:30;;;;;;;60.15;46.92;;;;;;;16.31;100.00;100948.38;4864819;29;20013;-82
2021/09/11 03:52:56;;;;;;;51.47;43.22;;;;;;;16.17;100.00;100922.50;4864353;29;20037;-83
2021/09/11 03:55:22;;;;;;;60.00;47.17;;;;;;;15.73;100.00;100864.94;4849515;29;20021;-82
2021/09/11 03:57:49;;;;;;;67.05;49.97;;;;;;;15.85;100.00;100884.78;4847827;29;20030;-82
2021/09/11 04:00:15;;;;;;;61.30;47.83;;;;;;;16.43;100.00;100979.09;4849495;29;20453;-81
2021/09/11 04:02:40;;;;;;;61.75;47.42;;;;;;;15.68;100.00;100862.09;4862689;29;20034;-82
2021/09/11 04:05:08;;;;;;;61.28;47.47;;;;;;;15.74;100.00;100878.25;4865306;29;20087;-81
2021/09/11 04:07:35;;;;;;;64.32;49.75;;;;;;;15.64;100.00;100867.13;4862737;29;20041;-82
2021/09/11 04:10:02;;;;;;;52.25;44.53;;;;;;;16.38;100.00;100987.09;4849456;29;20029;-82
2021/09/11 04:12:28;;;;;;;55.72;44.65;;;;;;;16.40;100.00;100986.91;4848963;29;20021;-82
2021/09/11 04:14:54;;;;;;;54.67;42.40;;;;;;;15.75;100.00;100884.50;4846441;29;20021;-82
2021/09/11 04:17:20;;;;;;;57.45;44.90;;;;;;;16.26;100.00;100958.28;4863056;29;20051;-82
2021/09/11 04:19:45;;;;;;;61.50;48.15;;;;;;;15.96;100.00;100918.47;4848892;29;20034;-82
2021/09/11 04:22:11;;;;;;;60.55;47.88;;;;;;;16.21;100.00;100951.66;4848523;29;20026;-82
2021/09/11 04:24:37;;;;;;;66.40;50.50;;;;;;;16.10;100.00;100932.66;4864204;29;20081;-82
2021/09/11 04:27:03;;;;;;;67.78;49.95;;;;;;;15.67;100.00;100852.31;4866153;29;20026;-82
2021/09/11 04:29:29;;;;;;;56.60;44.53;;;;;;;15.96;100.00;100905.72;4867813;29;20018;-82
2021/09/11 04:31:55;;;;;;;56.70;45.83;;;;;;;15.71;100.00;100867.88;4848995;29;20127;-82
2021/09/11 04:34:20;;;;;;;65.68;49.35;;;;;;;16.25;100.00;100943.88;4852355;29;20034;-81
2021/09/11 04:36:47;;;;;;;64.00;49.20;;;;;;;16.53;100.00;100983.97;4868450;29;20034;-81
2021/09/11 04:39:13;;;;;;;59.72;48.85;;;;;;;16.26;100.00;100939.25;4847785;29;20092;-81
2021/09/11 04:41:42;;;;;;;57.70;47.22;;;;;;;15.85;100.00;100862.25;4834237;29;20032;-81
2021/09/11 04:44:08;;;;;;;64.00;48.92;;;;;;;16.13;100.00;100907.75;4853138;29;20089;-82
2021/09/11 04:46:34;;;;;;;62.80;49.65;;;;;;;15.92;100.00;100873.81;4868576;29;20017;-82
2021/09/11 04:49:01;;;;;;;71.10;51.10;;;;;;;16.01;100.00;100898.75;4837717;29;20037;-81
2021/09/11 04:51:27;;;;;;;66.05;51.35;;;;;;;16.48;100.00;100983.00;4867784;29;20199;-82
2021/09/11 04:53:53;;;;;;;65.93;48.97;;;;;;;16.52;100.00;100985.00;4869696;29;20018;-82
2021/09/11 04:56:19;;;;;;;79.75;54.17;;;;;;;16.23;100.00;100929.72;4868967;29;20022;-81
2021/09/11 04:58:45;;;;;;;77.03;54.35;;;;;;;15.76;100.00;100850.06;4853188;29;20029;-82
2021/09/11 05:01:11;;;;;;;76.95;55.33;;;;;;;16.07;100.00;100903.25;4852398;29;20040;-82
2021/09/11 05:03:36;;;;;;;83.80;57.13;;;;;;;15.80;100.00;100865.66;4851485;29;20034;-82
2021/09/11 05:08:38;;;;;;;81.63;57.65;;;;;;;16.24;100.00;100920.50;5699930;24;20541;-82
2021/09/11 05:11:05;;;;;;;89.35;61.83;;;;;;;16.60;100.00;100975.69;4832605;29;20047;-82
2021/09/11 05:13:31;;;;;;;90.97;61.20;;;;;;;16.62;100.00;100987.16;4832415;29;20026;-81
2021/09/11 05:15:57;;;;;;;91.18;59.90;;;;;;;16.01;100.00;100882.47;4831659;29;20058;-81
2021/09/11 05:18:23;;;;;;;95.43;60.65;;;;;;;15.88;100.00;100865.31;4832284;29;20014;-82
2021/09/11 05:20:52;;;;;;;85.80;59.35;;;;;;;16.64;100.00;100972.28;4814744;29;20023;-80
2021/09/11 05:23:17;;;;;;;89.38;59.80;;;;;;;16.66;100.00;100972.06;4832549;29;20034;-81
2021/09/11 05:25:43;;;;;;;85.53;58.47;;;;;;;16.68;100.00;100978.06;4815403;29;20066;-81
2021/09/11 05:28:12;;;;;;;103.28;63.83;;;;;;;16.04;100.00;100869.25;4813147;29;20030;-81
2021/09/11 05:30:37;;;;;;;105.18;66.15;;;;;;;16.71;100.00;100965.91;4826367;29;20035;-81
2021/09/11 05:33:03;;;;;;;105.50;65.95;;;;;;;16.75;100.00;100976.06;4828698;29;20022;-81
2021/09/11 05:35:29;;;;;;;99.82;65.75;;;;;;;16.49;100.00;100936.59;4829873;29;20038;-81
2021/09/11 05:37:55;;;;;;;98.28;63.88;;;;;;;16.27;100.00;100884.75;4830746;29;20034;-81
2021/09/11 05:40:21;;;;;;;107.18;67.10;;;;;;;16.40;100.00;100903.53;4827279;29;20022;-81
2021/09/11 05:42:46;;;;;;;97.55;63.95;;;;;;;16.84;100.00;100974.66;4828339;29;20046;-82
2021/09/11 05:45:12;;;;;;;96.68;62.70;;;;;;;16.90;100.00;100972.91;4829616;29;20015;-81
2021/09/11 05:47:38;;;;;;;107.22;64.40;;;;;;;16.17;100.00;100862.78;4808449;29;20018;-82
2021/09/11 05:50:05;;;;;;;91.45;59.05;;;;;;;16.56;100.00;100903.91;4811126;29;20055;-82
2021/09/11 05:52:31;;;;;;;95.07;61.53;;;;;;;17.02;100.00;100981.03;4800328;29;20043;-81
2021/09/11 05:54:57;;;;;;;93.13;59.88;;;;;;;16.49;100.00;100884.16;4830454;29;20027;-81
2021/09/11 05:57:25;;;;;;;89.97;58.05;;;;;;;17.07;100.00;100971.13;4829410;29;20027;-80
2021/09/11 06:02:26;;;;;;;87.05;58.03;;;;;;;17.16;100.00;100979.75;5009205;24;20075;-83
2021/09/11 06:07:26;;;;;;;112.88;63.45;;;;;;;16.93;100.00;100941.72;5672013;24;20050;-81
2021/09/11 06:12:27;;;;;;;104.07;61.35;;;;;;;16.52;100.00;100867.38;5407286;24;20104;-83
2021/09/11 06:14:53;;;;;;;111.50;64.43;;;;;;;17.27;100.00;100976.16;4802956;29;20090;-83
2021/09/11 06:17:19;;;;;;;103.85;61.05;;;;;;;16.53;100.00;100853.56;4831870;29;20055;-84
2021/09/11 06:19:45;;;;;;;104.72;60.60;;;;;;;17.34;100.00;100974.13;4939326;24;20068;-82
2021/09/11 06:24:46;;;;;;;121.22;65.70;;;;;;;16.72;100.00;100876.00;5817498;24;20345;-80
2021/09/11 06:32:22;;;;;;;116.72;64.18;;;;;;;17.00;100.00;100917.94;4845121;24;20047;-83
2021/09/11 06:45:08;;;;;;;130.23;68.82;;;;;;;16.96;100.00;100889.59;5002096;24;20073;-83
2021/09/11 06:52:44;;;;;;;108.32;62.03;;;;;;;17.24;100.00;100930.41;4980827;24;20046;-82
2021/09/11 06:55:11;;;;;;;128.10;67.88;;;;;;;17.06;100.00;100895.25;4860189;29;20054;-82
2021/09/11 06:57:37;;;;;;;130.05;67.07;;;;;;;17.43;100.00;100947.41;4849231;29;20030;-80
2021/09/11 07:00:05;;;;;;;137.25;69.95;;;;;;;17.61;100.00;100984.47;4861785;29;20041;-83
2021/09/11 07:02:31;;;;;;;124.93;66.82;;;;;;;17.67;100.00;100985.41;4851532;29;20022;-82
2021/09/11 07:07:32;;;;;;;130.15;68.60;;;;;;;17.67;100.00;100994.41;4827704;24;1426694;-82
2021/09/11 07:09:58;;;;;;;139.10;67.97;;;;;;;16.91;100.00;100872.09;4826968;29;20061;-81
2021/09/11 07:12:24;;;;;;;147.18;71.00;;;;;;;17.26;100.00;100932.91;4811007;29;20027;-81
2021/09/11 07:14:50;;;;;;;139.40;67.15;;;;;;;16.98;100.00;100885.53;4810696;29;20045;-81
2021/09/11 07:17:17;;;;;;;127.05;67.18;;;;;;;17.35;100.00;100956.78;4813966;29;20011;-82
2021/09/11 07:19:45;;;;;;;146.35;69.68;;;;;;;17.61;100.00;100996.22;4815866;29;20015;-81
2021/09/11 07:22:10;;;;;;;128.93;66.15;;;;;;;16.93;100.00;100893.59;4807885;29;20023;-82
2021/09/11 07:33:10;;;;;;;129.30;67.57;;;;;;;17.45;100.00;100993.38;5858957;24;20022;31
2021/09/11 09:47:12;;;;;;;10.50;7.93;;;;;;;18.01;100.00;100989.09;5850344;24;20348;31
2021/09/11 09:53:13;;;;;;;9.05;4.70;;;;;;;17.98;100.00;100998.59;5291510;24;20041;31
2021/09/11 12:28:33;;;;;;;2.33;1.00;;;;;;;19.34;100.00;100963.97;5881896;24;20020;31
2021/09/11 13:48:10;;;;;;;4.43;3.40;;;;;;;18.24;99.27;100768.34;3906969;24;20239;-81
2021/09/11 13:50:37;;;;;;;4.65;3.63;;;;;;;18.27;98.90;100767.03;5245609;24;20014;-81
2021/09/11 13:55:38;;;;;;;6.78;4.30;;;;;;;18.99;99.67;100895.03;5151114;24;20066;-83
2021/09/11 13:58:04;;;;;;;5.38;4.15;;;;;;;19.18;99.38;100928.28;4944359;24;20167;-81
2021/09/11 14:03:06;;;;;;;5.55;4.20;;;;;;;18.17;100.00;100805.81;4989303;24;20150;-82
2021/09/11 14:05:34;;;;;;;6.97;4.45;;;;;;;18.70;100.00;100874.44;4844518;29;20046;-82
2021/09/11 14:08:02;;;;;;;4.85;4.20;;;;;;;18.15;99.50;100782.66;4842995;29;20054;-80
2021/09/11 14:10:28;;;;;;;4.38;3.80;;;;;;;18.64;99.59;100862.66;4821880;29;20094;-80
2021/09/11 14:12:54;;;;;;;4.32;3.80;;;;;;;18.89;99.39;100880.44;4840236;29;20033;-81
2021/09/11 14:15:20;;;;;;;4.85;3.88;;;;;;;18.20;98.87;100771.81;4841817;29;20090;-81
2021/09/11 14:17:49;;;;;;;6.63;4.47;;;;;;;19.21;99.27;100921.50;4834566;29;20015;-82
2021/09/11 14:20:16;;;;;;;4.70;4.28;;;;;;;18.76;99.30;100860.66;4826266;29;20034;-83
2021/09/11 14:23:00;;;;;;;6.15;4.40;;;;;;;19.12;100.00;100931.22;4846004;29;20022;-81
2021/09/11 14:25:26;;;;;;;8.35;5.90;;;;;;;18.08;100.00;100777.41;4836995;29;20034;-81
2021/09/11 14:27:53;;;;;;;7.20;4.97;;;;;;;18.91;100.00;100897.41;4831882;29;20098;-82
2021/09/11 14:30:20;;;;;;;7.75;6.45;;;;;;;18.51;100.00;100828.41;4824565;29;20031;-82
2021/09/11 14:35:20;;;;;;;9.43;5.70;;;;;;;18.03;100.00;100758.25;5582223;24;20042;-83
2021/09/11 14:37:46;;;;;;;8.60;6.07;;;;;;;18.31;100.00;100814.50;4838623;29;20106;-83
2021/09/11 14:40:13;;;;;;;9.98;8.93;;;;;;;18.59;100.00;100878.09;4867604;29;20014;-84
2021/09/11 15:45:29;;;;;;;5.88;3.47;;;;;;;17.96;100.00;100790.25;4810693;29;20105;-83
2021/09/11 15:47:55;;;;;;;4.55;3.83;;;;;;;18.38;100.00;100842.38;4795745;29;20053;-81
2021/09/11 15:50:21;;;;;;;6.32;3.78;;;;;;;18.23;100.00;100828.53;4810690;29;20145;-83
2021/09/11 15:52:47;;;;;;;6.03;4.28;;;;;;;18.50;100.00;100856.72;5348115;24;20043;-81
2021/09/11 15:55:14;;;;;;;6.72;4.88;;;;;;;18.80;100.00;100909.22;4777849;30;20022;-81
2021/09/11 15:57:44;;;;;;;5.70;4.50;;;;;;;18.34;100.00;100837.66;4794314;29;20027;-81
2021/09/11 16:00:14;;;;;;;5.43;4.60;;;;;;;17.94;100.00;100786.94;4803696;29;20039;-83
2021/09/11 16:02:41;;;;;;;5.95;4.00;;;;;;;18.47;100.00;100872.72;4807353;29;20035;-82
2021/09/11 16:05:08;;;;;;;7.05;4.05;;;;;;;18.05;100.00;100788.78;4784602;29;20039;-81
2021/09/11 16:07:34;;;;;;;8.98;5.53;;;;;;;18.02;100.00;100786.56;4795618;30;20122;-82
2021/09/11 16:10:00;;;;;;;5.95;4.40;;;;;;;17.81;100.00;100750.84;4793084;29;20039;-82
2021/09/11 16:12:26;;;;;;;5.70;3.78;;;;;;;18.15;100.00;100816.16;4803824;29;20070;-83
2021/09/11 16:14:54;;;;;;;5.18;3.85;;;;;;;18.26;100.00;100841.66;4807126;29;20035;-84
2021/09/11 16:17:19;;;;;;;4.05;3.47;;;;;;;17.81;100.00;100778.06;4796004;29;20035;-84
2021/09/11 16:19:45;;;;;;;5.97;3.90;;;;;;;18.37;100.00;100861.69;4810839;29;20034;-83
2021/09/11 16:22:11;;;;;;;3.58;3.28;;;;;;;18.69;100.00;100911.78;4810302;29;20051;-83
2021/09/11 16:24:36;;;;;;;4.25;3.28;;;;;;;17.66;100.00;100753.28;4794153;29;20120;-83
2021/09/11 16:29:37;;;;;;;3.38;3.00;;;;;;;17.87;100.00;100799.91;5392487;24;20066;-80
2021/09/11 16:32:05;;;;;;;3.50;3.20;;;;;;;17.82;100.00;100784.34;5411170;24;20009;-80
2021/09/11 16:34:31;;;;;;;8.20;4.07;;;;;;;17.67;100.00;100765.81;4995630;24;20047;-80
2021/09/11 16:36:58;;;;;;;5.50;3.17;;;;;;;18.10;100.00;100843.31;4874126;24;20118;-81
2021/09/11 16:39:24;;;;;;;4.10;3.38;;;;;;;18.52;100.00;100908.25;4826586;29;20022;-82
2021/09/11 16:41:49;;;;;;;5.53;3.25;;;;;;;18.45;100.00;100908.41;4811585;29;20020;-81
2021/09/11 16:44:15;;;;;;;6.53;2.92;;;;;;;17.76;100.00;100813.34;4825006;29;20027;-81
2021/09/11 16:59:39;;;;;;;6.18;3.10;;;;;;;17.21;100.00;100759.56;5547555;24;20051;-82
2021/09/11 17:02:05;;;;;;;5.97;2.88;;;;;;;17.18;100.00;100757.34;4802963;29;20016;-83
2021/09/11 17:04:31;;;;;;;5.10;3.40;;;;;;;17.25;100.00;100779.78;4827647;29;20033;-83
2021/09/11 17:40:34;;;;;;;10.55;7.88;;;;;;;16.88;100.00;100780.16;5338995;24;20059;-81
2021/09/11 17:43:01;;;;;;;10.50;8.32;;;;;;;16.82;100.00;100764.84;4813739;29;20015;-81
2021/09/11 17:45:27;;;;;;;13.00;10.10;;;;;;;17.57;100.00;100877.19;4799906;29;20019;-81
2021/09/11 17:47:54;;;;;;;14.25;10.52;;;;;;;17.77;100.00;100928.50;4806818;29;20038;-81
2021/09/11 17:52:54;;;;;;;17.63;12.52;;;;;;;16.85;100.00;100780.66;5313299;24;20039;-82
2021/09/11 18:00:31;;;;;;;21.05;12.55;;;;;;;17.06;100.00;100805.53;4877377;24;20063;-81
2021/09/11 18:02:56;;;;;;;16.77;12.57;;;;;;;16.75;100.00;100764.13;4811605;29;20055;-82
2021/09/11 18:05:22;;;;;;;15.52;12.35;;;;;;;17.59;100.00;100894.94;4798016;29;20020;-82
2021/09/11 18:20:45;;;;;;;19.98;14.02;;;;;;;16.89;100.00;100809.00;5669696;24;20742;-82
2021/09/11 18:25:49;;;;;;;26.45;13.90;;;;;;;17.07;100.00;100854.22;5786019;24;20021;-78
2021/09/11 18:46:21;;;;;;;18.73;10.77;;;;;;;16.85;100.00;100826.88;5611436;24;20050;-82
2021/09/11 20:08:53;;;;;;;13.27;7.03;;;;;;;16.99;100.00;100853.78;5433342;24;20043;-81
2021/09/11 20:39:46;;;;;;;9.50;5.88;;;;;;;16.48;100.00;100793.69;5291182;24;20038;-84
2021/09/11 20:45:08;;;;;;;8.20;5.47;;;;;;;17.07;100.00;100888.72;5733187;24;20033;31
2021/09/11 20:50:07;;;;;;;10.40;6.28;;;;;;;17.09;100.00;100887.44;4846217;29;20054;-84
2021/09/11 20:52:33;;;;;;;9.43;5.43;;;;;;;16.86;100.00;100852.97;4846954;29;20545;-82
2021/09/11 21:00:10;;;;;;;11.02;6.40;;;;;;;16.31;100.00;100765.63;5557302;24;20029;-82
2021/09/11 21:02:35;;;;;;;11.88;6.57;;;;;;;16.44;100.00;100787.09;4807340;29;20074;-82
2021/09/11 21:05:02;;;;;;;12.45;6.45;;;;;;;17.07;100.00;100877.84;4813193;29;20019;-81
2021/09/11 21:07:29;;;;;;;12.60;6.18;;;;;;;16.38;100.00;100771.75;4828661;29;20093;-82
2021/09/11 21:09:55;;;;;;;11.07;6.13;;;;;;;17.05;100.00;100867.22;4812545;29;20035;-81
2021/09/11 21:12:21;;;;;;;16.67;7.03;;;;;;;16.76;100.00;100827.47;4815308;29;20031;-82
2021/09/11 21:14:48;;;;;;;17.00;7.05;;;;;;;17.00;100.00;100880.72;4831341;29;20019;-82
2021/09/11 21:17:15;;;;;;;17.83;7.10;;;;;;;16.20;100.00;100751.00;4816580;29;20014;-82
2021/09/11 21:19:41;;;;;;;15.25;6.70;;;;;;;16.66;100.00;100826.16;5389636;24;20481;-82
2021/09/11 21:29:52;;;;;;;16.48;6.20;;;;;;;16.16;100.00;100757.97;5554825;24;20054;-82
2021/09/11 21:45:13;;;;;;;13.48;5.80;;;;;;;16.29;100.00;100820.19;5685008;24;20050;-82
2021/09/11 21:47:40;;;;;;;12.27;5.93;;;;;;;15.85;100.00;100757.25;5257565;24;20115;-80
2021/09/11 21:50:10;;;;;;;11.50;5.72;;;;;;;15.85;100.00;100756.44;4814071;29;20078;-83
2021/09/11 21:52:36;;;;;;;10.80;5.00;;;;;;;15.96;100.00;100774.63;4798397;29;20031;-84
2021/09/11 21:55:09;;;;;;;12.73;5.57;;;;;;;16.11;100.00;100798.56;4822957;29;20099;-83
2021/09/11 21:57:35;;;;;;;11.27;6.05;;;;;;;15.97;100.00;100773.53;4785895;29;20035;-84
2021/09/11 22:00:05;;;;;;;14.30;5.80;;;;;;;16.59;100.00;100873.53;4818840;29;20015;-83
2021/09/11 22:02:31;;;;;;;16.00;6.55;;;;;;;16.04;100.00;100781.56;4795752;30;20023;-82
2021/09/11 22:04:57;;;;;;;13.02;7.30;;;;;;;16.49;100.00;100862.41;4808449;29;20043;-82
2021/09/11 22:07:23;;;;;;;17.05;7.60;;;;;;;16.25;100.00;100813.53;4794699;29;20060;-82
2021/09/11 22:09:49;;;;;;;15.77;7.88;;;;;;;16.43;100.00;100831.63;4791374;30;20031;-82
2021/09/11 22:12:14;;;;;;;14.18;7.25;;;;;;;16.20;100.00;100797.16;4810174;29;20051;-83
2021/09/11 22:14:40;;;;;;;13.63;7.78;;;;;;;15.90;100.00;100753.84;4811559;29;20108;-82
2021/09/11 22:17:06;;;;;;;15.07;7.72;;;;;;;15.96;100.00;100764.59;4792886;30;20098;-82
2021/09/11 22:19:32;;;;;;;15.77;8.80;;;;;;;16.13;100.00;100799.16;4812291;29;20039;-83
2021/09/11 22:21:57;;;;;;;18.05;9.50;;;;;;;15.89;100.00;100749.47;4812057;30;20015;-82
2021/09/11 22:24:23;;;;;;;21.05;10.05;;;;;;;15.96;100.00;100771.91;4811509;29;20030;-83
2021/09/11 22:26:49;;;;;;;14.75;9.00;;;;;;;16.62;100.00;100878.47;4812212;29;20106;-83
2021/09/11 22:29:15;;;;;;;17.40;9.52;;;;;;;15.97;100.00;100765.41;4796066;30;20029;-83
2021/09/11 22:31:40;;;;;;;13.45;9.60;;;;;;;16.27;100.00;100806.00;4811017;29;20059;-83
2021/09/11 22:34:06;;;;;;;16.65;9.93;;;;;;;16.12;100.00;100773.06;4814361;29;20038;-81
2021/09/11 22:36:33;;;;;;;16.08;9.27;;;;;;;16.21;100.00;100774.38;4829589;29;20007;-83
2021/09/11 22:38:59;;;;;;;19.95;11.30;;;;;;;16.09;100.00;100763.53;4810504;29;20028;-83
2021/09/11 22:41:25;;;;;;;18.45;10.40;;;;;;;16.34;100.00;100795.84;4811561;30;20011;-82
2021/09/11 22:43:51;;;;;;;24.55;11.85;;;;;;;16.35;100.00;100802.09;4812157;30;20069;-83
2021/09/11 22:46:16;;;;;;;23.13;13.07;;;;;;;16.21;100.00;100768.94;4812656;29;20020;-84
2021/09/11 22:48:42;;;;;;;24.95;15.02;;;;;;;16.36;100.00;100784.75;4796652;29;20039;-82
2021/09/11 22:51:09;;;;;;;29.50;15.95;;;;;;;16.19;100.00;100769.19;4828116;29;20026;-83
2021/09/11 22:53:34;;;;;;;35.88;16.92;;;;;;;16.75;100.00;100859.22;4815343;29;20015;-84
2021/09/11 22:56:00;;;;;;;31.27;16.83;;;;;;;16.31;100.00;100790.06;4826038;29;20065;-84
2021/09/11 22:58:26;;;;;;;37.55;16.73;;;;;;;16.38;100.00;100802.44;4797156;29;20016;-83
2021/09/11 23:06:04;;;;;;;35.33;17.75;;;;;;;16.26;100.00;100760.91;5319673;24;20051;-84
2021/09/11 23:08:30;;;;;;;40.72;17.65;;;;;;;16.30;100.00;100778.38;4812363;29;20069;-82
2021/09/11 23:10:55;;;;;;;40.00;17.23;;;;;;;16.14;100.00;100752.75;4812266;29;20086;-83
2021/09/11 23:13:21;;;;;;;38.25;19.38;;;;;;;16.12;100.00;100738.59;4811403;30;20050;-83
2021/09/11 23:15:47;;;;;;;44.97;19.25;;;;;;;16.06;100.00;100730.56;4794759;30;20031;-82
2021/09/11 23:18:12;;;;;;;44.45;19.52;;;;;;;16.49;100.00;100791.78;4810468;29;20031;-82
2021/09/11 23:20:38;;;;;;;47.30;19.70;;;;;;;16.31;100.00;100774.59;4795411;30;20108;-83
2021/09/11 23:23:04;;;;;;;42.25;18.35;;;;;;;16.08;100.00;100731.19;4795362;30;20030;-83
2021/09/11 23:25:29;;;;;;;42.40;18.80;;;;;;;16.75;100.00;100834.78;4811871;29;20031;-82
2021/09/11 23:27:55;;;;;;;45.97;18.38;;;;;;;16.32;100.00;100759.94;4796297;30;20064;-82
2021/09/11 23:30:21;;;;;;;33.15;17.25;;;;;;;16.07;100.00;100729.53;4796002;29;20039;-83
2021/09/11 23:32:47;;;;;;;42.33;19.58;;;;;;;16.36;100.00;100761.13;4810830;30;20039;-83
2021/09/11 23:35:13;;;;;;;47.05;20.08;;;;;;;16.78;100.00;100826.16;4811633;30;20048;-83
2021/09/11 23:37:39;;;;;;;49.35;19.50;;;;;;;16.24;100.00;100746.75;4810723;29;20031;-83